Time;durP1;ratioP1;P1;durP2;ratioP2;P2;SDS_P1;SDS_P2;PMS_P1;PMS_P2;Temp;Humidity;BMP_temperature;BMP_pressure;BME280_temperature;BME280_humidity;BME280_pressure;Samples;Min_cycle;Max_cycle;Signal;HPM_P1;HPM_P2
2022/01/09 00:00:50;;;;;;;9.07;7.00;;;4.90;99.90;;;;;;4983409;28;20045;-96
2022/01/09 00:11:48;;;;;;;9.73;7.10;;;4.90;99.90;;;;;;4917475;29;20054;-95
2022/01/09 00:14:14;;;;;;;12.63;8.25;;;4.90;99.90;;;;;;4889740;29;20051;-93
2022/01/09 00:17:27;;;;;;;11.38;8.00;;;4.90;99.90;;;;;;4881328;29;20094;-96
2022/01/09 00:23:23;;;;;;;8.80;6.35;;;4.90;99.90;;;;;;4942106;28;20046;-96
2022/01/09 00:25:54;;;;;;;10.32;6.43;;;5.00;99.90;;;;;;5019963;28;20046;-96
2022/01/09 00:28:58;;;;;;;10.00;7.13;;;4.90;99.90;;;;;;5017164;28;20322;-95
2022/01/09 00:31:41;;;;;;;9.23;6.72;;;5.00;99.90;;;;;;5048074;28;20063;-96
2022/01/09 00:34:13;;;;;;;13.80;7.72;;;5.00;99.90;;;;;;4970113;28;20072;-96
2022/01/09 00:40:01;;;;;;;9.43;7.22;;;5.00;99.90;;;;;;5049383;28;20912;-96
2022/01/09 00:46:18;;;;;;;10.00;7.10;;;5.00;99.90;;;;;;4955412;27;20835;-94
2022/01/09 00:49:10;;;;;;;8.52;6.57;;;4.90;99.90;;;;;;4877526;28;20598;-94
2022/01/09 00:51:39;;;;;;;8.90;6.50;;;4.90;99.90;;;;;;4883633;28;20079;-96
2022/01/09 00:54:14;;;;;;;10.02;7.32;;;4.90;99.90;;;;;;4897443;28;20407;-93
2022/01/09 00:56:49;;;;;;;9.20;6.80;;;4.90;99.90;;;;;;4897362;28;20277;-95
2022/01/09 00:59:55;;;;;;;8.95;6.72;;;5.00;99.90;;;;;;4910727;28;20052;-95
2022/01/09 01:02:30;;;;;;;11.38;7.30;;;4.90;99.90;;;;;;4920550;28;20079;-93
2022/01/09 01:05:31;;;;;;;9.57;7.15;;;4.90;99.90;;;;;;4888469;28;20059;-96
2022/01/09 01:08:10;;;;;;;;;;;;;;;;;;;;;
2022/01/09 01:14:33;;;;;;;9.88;7.30;;;4.80;99.90;;;;;;4883234;28;20412;-95
2022/01/09 01:17:13;;;;;;;8.55;6.72;;;4.90;99.90;;;;;;4991077;28;20435;-93
2022/01/09 01:19:49;;;;;;;10.10;7.25;;;4.90;99.90;;;;;;4996657;28;20049;-93
2022/01/09 01:22:49;;;;;;;10.35;7.80;;;5.00;99.90;;;;;;5002443;28;20489;-94
2022/01/09 01:29:16;;;;;;;9.82;7.97;;;4.80;99.90;;;;;;4923086;28;20378;-96
2022/01/09 01:31:53;;;;;;;;;;;;;;;;;;;;;
2022/01/09 01:50:37;;;;;;;;;;;;;;;;;;;;;
2022/01/09 01:57:49;;;;;;;14.60;12.93;;;4.80;99.90;;;;;;4864219;29;20104;-91
2022/01/09 02:24:38;;;;;;;21.50;19.30;;;4.90;99.90;;;;;;4983001;28;20409;-95
2022/01/09 02:27:35;;;;;;;23.48;21.08;;;5.00;99.90;;;;;;4964630;28;20415;-94
2022/01/09 02:30:41;;;;;;;21.70;19.50;;;5.00;99.90;;;;;;4953752;28;20050;-93
2022/01/09 02:33:31;;;;;;;22.23;19.92;;;5.00;99.90;;;;;;4913684;28;20120;-94
2022/01/09 02:35:57;;;;;;;21.08;18.73;;;5.00;99.90;;;;;;4926730;28;20957;-93
2022/01/09 03:01:32;;;;;;;;;;;;;;;;;;;;;
2022/01/09 03:04:26;;;;;;;22.15;19.42;;;5.10;99.90;;;;;;4847738;29;20315;-93
2022/01/09 03:07:23;;;;;;;21.45;18.67;;;5.10;99.90;;;;;;4854118;28;20057;-93
2022/01/09 03:10:13;;;;;;;22.17;19.33;;;5.10;99.90;;;;;;4888518;28;20094;-93
2022/01/09 03:12:50;;;;;;;21.08;18.23;;;5.10;99.90;;;;;;4873741;28;20054;-93
2022/01/09 03:15:20;;;;;;;20.48;17.35;;;5.10;99.90;;;;;;4885257;28;20047;-91
2022/01/09 03:17:46;;;;;;;20.25;17.02;;;5.10;99.90;;;;;;4900678;28;20084;-93
2022/01/09 03:20:20;;;;;;;18.10;16.15;;;5.20;99.90;;;;;;4887041;28;20050;-92
2022/01/09 03:23:00;;;;;;;18.30;16.02;;;5.20;99.90;;;;;;4877491;28;20197;-92
2022/01/09 03:25:27;;;;;;;18.67;14.07;;;5.20;99.90;;;;;;4897343;28;20090;-92
2022/01/09 03:27:55;;;;;;;19.17;15.20;;;5.30;99.90;;;;;;4929628;28;20535;-92
2022/01/09 03:30:22;;;;;;;19.75;15.52;;;5.30;99.90;;;;;;4922997;28;20268;-91
2022/01/09 03:32:51;;;;;;;21.55;15.45;;;5.40;99.90;;;;;;4932155;28;20214;-93
2022/01/09 03:35:31;;;;;;;16.67;13.30;;;5.40;99.90;;;;;;4922604;28;20058;-90
2022/01/09 03:37:59;;;;;;;18.75;13.20;;;5.40;99.90;;;;;;4917107;28;20049;-92
2022/01/09 03:40:28;;;;;;;19.17;12.88;;;5.50;99.90;;;;;;4923889;28;20049;-93
2022/01/09 03:42:58;;;;;;;17.38;12.52;;;5.50;99.90;;;;;;4920888;28;20046;-91
2022/01/09 03:45:42;;;;;;;18.33;11.80;;;5.60;99.90;;;;;;4917703;28;20070;-92
2022/01/09 03:48:10;;;;;;;17.83;10.65;;;5.60;99.90;;;;;;4949996;28;20065;-93
2022/01/09 03:50:39;;;;;;;22.48;10.93;;;5.60;99.90;;;;;;4921196;28;20088;-94
2022/01/09 03:53:12;;;;;;;17.98;10.73;;;5.70;99.90;;;;;;4913640;28;20289;-92
2022/01/09 03:55:40;;;;;;;15.63;10.25;;;5.60;99.90;;;;;;4901751;28;20054;-92
2022/01/09 03:58:06;;;;;;;20.50;12.30;;;5.60;99.90;;;;;;4904190;28;20064;-93
2022/01/09 04:00:38;;;;;;;20.23;11.50;;;5.70;99.90;;;;;;4919961;28;20193;-93
2022/01/09 04:03:03;;;;;;;22.17;11.57;;;5.70;99.90;;;;;;4937764;28;20088;-93
2022/01/09 04:05:32;;;;;;;21.88;10.98;;;5.70;99.90;;;;;;4923383;28;20479;-91
2022/01/09 04:07:58;;;;;;;20.80;10.65;;;5.80;99.90;;;;;;4931859;28;20462;-92
2022/01/09 04:10:40;;;;;;;22.88;10.07;;;5.80;99.90;;;;;;4914976;28;20333;-92
2022/01/09 04:13:18;;;;;;;25.02;10.65;;;5.90;99.90;;;;;;4933190;28;20046;-93
2022/01/09 04:15:49;;;;;;;24.50;9.82;;;5.90;99.90;;;;;;4932573;28;20054;-91
2022/01/09 04:18:19;;;;;;;25.13;9.18;;;5.90;99.90;;;;;;4920809;28;20514;-91
2022/01/09 04:20:54;;;;;;;29.30;8.48;;;6.00;99.90;;;;;;4927718;28;20041;-91
2022/01/09 04:23:21;;;;;;;31.25;8.02;;;6.00;99.90;;;;;;4919952;28;20048;-92
2022/01/09 04:25:52;;;;;;;32.55;7.40;;;6.00;99.90;;;;;;4918759;28;20092;-91
2022/01/09 04:28:31;;;;;;;29.15;6.57;;;6.10;99.90;;;;;;4931505;28;20111;-93
2022/01/09 04:30:57;;;;;;;31.45;6.53;;;6.20;99.90;;;;;;4927366;28;20108;-91
2022/01/09 04:33:26;;;;;;;33.70;6.60;;;6.20;99.90;;;;;;4912058;28;20478;-92
2022/01/09 04:35:52;;;;;;;42.80;6.45;;;6.30;99.90;;;;;;4940475;28;20038;-92
2022/01/09 04:38:22;;;;;;;39.80;6.10;;;6.30;99.90;;;;;;4910590;28;20340;-93
2022/01/09 04:40:51;;;;;;;45.05;6.70;;;6.30;99.90;;;;;;4927203;28;20599;-90
2022/01/09 04:43:20;;;;;;;39.97;6.07;;;6.40;99.90;;;;;;4929092;28;20728;-91
2022/01/09 04:45:46;;;;;;;37.70;5.97;;;6.40;99.90;;;;;;4915678;28;20049;-91
2022/01/09 04:48:27;;;;;;;38.60;6.18;;;6.40;99.90;;;;;;4933125;28;20045;-95
2022/01/09 04:50:58;;;;;;;;;;;6.40;99.90;;;;;;4927665;28;20418;-92
2022/01/09 04:53:23;;;;;;;40.47;5.20;;;6.40;99.90;;;;;;4915076;28;19991;-91
2022/01/09 04:55:56;;;;;;;32.63;5.43;;;6.40;99.90;;;;;;4912192;28;20042;-90
2022/01/09 04:58:25;;;;;;;39.13;5.47;;;6.40;99.90;;;;;;4919584;28;20081;-89
2022/01/09 05:00:53;;;;;;;41.50;6.03;;;6.40;99.90;;;;;;4902882;28;20273;-89
2022/01/09 05:03:31;;;;;;;35.13;5.03;;;6.40;99.90;;;;;;4908640;28;20050;-89
2022/01/09 05:06:03;;;;;;;33.30;4.75;;;6.40;99.90;;;;;;4920318;28;20048;-89
2022/01/09 05:08:28;;;;;;;30.73;4.68;;;6.40;99.90;;;;;;4896629;28;20069;-91
2022/01/09 05:10:57;;;;;;;36.63;5.07;;;6.40;99.90;;;;;;4913764;28;20144;-92
2022/01/09 05:13:26;;;;;;;34.42;5.35;;;6.40;99.90;;;;;;4912868;28;20488;-91
2022/01/09 05:15:52;;;;;;;31.40;4.72;;;6.40;99.90;;;;;;4937436;28;20045;-89
2022/01/09 05:18:19;;;;;;;28.52;4.55;;;6.40;99.90;;;;;;4893267;28;20054;-90
2022/01/09 05:20:53;;;;;;;27.80;5.07;;;6.40;99.90;;;;;;4916655;28;20550;-92
2022/01/09 05:23:28;;;;;;;34.40;4.75;;;6.40;99.90;;;;;;4925312;28;20124;-90
2022/01/09 05:26:02;;;;;;;30.00;4.72;;;6.40;99.90;;;;;;4920110;28;20245;-92
2022/01/09 05:28:40;;;;;;;30.83;4.13;;;6.40;99.90;;;;;;4923141;28;20657;-94
2022/01/09 05:31:06;;;;;;;31.40;4.65;;;6.40;99.90;;;;;;4942944;28;20537;-90
2022/01/09 05:33:37;;;;;;;27.33;4.30;;;6.40;99.90;;;;;;4899356;28;20124;-89
2022/01/09 05:36:06;;;;;;;29.40;4.88;;;6.40;99.90;;;;;;4931772;28;20144;-90
2022/01/09 05:38:32;;;;;;;29.45;4.38;;;6.40;99.90;;;;;;4932701;28;20352;-92
2022/01/09 05:41:00;;;;;;;25.27;4.75;;;6.40;99.90;;;;;;4907942;28;20488;-89
2022/01/09 05:43:32;;;;;;;26.52;4.03;;;6.30;99.90;;;;;;4935357;28;20038;-93
2022/01/09 05:45:57;;;;;;;23.45;3.90;;;6.40;99.90;;;;;;4910293;28;20129;-91
2022/01/09 05:48:23;;;;;;;25.05;4.10;;;6.40;99.90;;;;;;4925033;28;20631;-89
2022/01/09 05:50:50;;;;;;;23.52;3.50;;;6.40;99.90;;;;;;4923472;28;20049;-90
2022/01/09 05:53:19;;;;;;;28.00;3.60;;;6.30;99.90;;;;;;4911891;28;20530;-90
2022/01/09 05:55:47;;;;;;;18.70;3.22;;;6.30;99.90;;;;;;4947248;28;20370;-89
2022/01/09 05:58:13;;;;;;;26.60;3.70;;;6.30;99.90;;;;;;4921472;28;20076;-91
2022/01/09 06:00:39;;;;;;;25.08;3.53;;;6.30;99.90;;;;;;4911190;28;20938;-91
2022/01/09 06:03:05;;;;;;;23.00;3.42;;;6.30;99.90;;;;;;4904901;28;20046;-91
2022/01/09 06:05:37;;;;;;;17.52;3.60;;;6.20;99.90;;;;;;4914814;28;20372;-91
2022/01/09 06:08:23;;;;;;;20.95;3.20;;;6.20;99.90;;;;;;4908281;28;20506;-89
2022/01/09 06:10:52;;;;;;;21.30;3.13;;;6.20;99.90;;;;;;4924949;28;20523;-90
2022/01/09 06:13:18;;;;;;;19.15;3.10;;;6.10;99.90;;;;;;4927937;28;20297;-89
2022/01/09 06:15:44;;;;;;;19.52;3.13;;;6.10;99.90;;;;;;4923750;28;20283;-91
2022/01/09 06:18:11;;;;;;;18.50;3.17;;;6.10;99.90;;;;;;4917804;28;20359;-90
2022/01/09 06:20:38;;;;;;;21.60;3.42;;;6.10;99.90;;;;;;4887182;28;20345;-91
2022/01/09 06:23:04;;;;;;;20.67;3.22;;;6.10;99.90;;;;;;4914271;28;20053;-91
2022/01/09 06:25:30;;;;;;;22.23;3.83;;;6.00;99.90;;;;;;4921197;28;20480;-91
2022/01/09 06:27:56;;;;;;;23.02;3.55;;;6.00;99.90;;;;;;4909291;28;20066;-91
2022/01/09 06:30:24;;;;;;;22.38;3.80;;;6.00;99.90;;;;;;4906866;28;20265;-91
2022/01/09 06:32:52;;;;;;;20.40;3.03;;;6.00;99.90;;;;;;4905161;28;20491;-92
2022/01/09 06:35:18;;;;;;;20.95;3.55;;;6.00;99.90;;;;;;4925733;28;20650;-90
2022/01/09 06:37:44;;;;;;;18.90;3.38;;;6.00;99.90;;;;;;4919987;28;20767;-90
2022/01/09 06:40:13;;;;;;;20.02;3.30;;;6.00;99.90;;;;;;4890020;28;20773;-91
2022/01/09 06:42:38;;;;;;;17.70;3.38;;;6.00;99.90;;;;;;4924510;28;20577;-89
2022/01/09 06:45:05;;;;;;;17.67;3.10;;;6.00;99.90;;;;;;4876645;28;20046;-91
2022/01/09 06:47:31;;;;;;;18.17;2.50;;;6.00;99.90;;;;;;4922926;28;20570;-90
2022/01/09 06:49:58;;;;;;;19.15;2.67;;;6.00;99.90;;;;;;4911387;28;20045;-90
2022/01/09 06:52:38;;;;;;;13.90;2.55;;;5.90;99.90;;;;;;4909754;28;20053;-93
2022/01/09 06:55:04;;;;;;;16.10;3.15;;;6.00;99.90;;;;;;4910787;28;20686;-92
2022/01/09 06:57:39;;;;;;;18.27;2.92;;;6.00;99.90;;;;;;4910267;28;20181;-88
2022/01/09 07:00:09;;;;;;;15.68;2.50;;;6.00;99.90;;;;;;4911183;28;20045;-91
2022/01/09 07:02:35;;;;;;;14.43;2.50;;;5.90;99.90;;;;;;4908008;28;20503;-90
2022/01/09 07:05:01;;;;;;;12.82;2.47;;;5.90;99.90;;;;;;4927038;28;20808;-89
2022/01/09 07:07:27;;;;;;;18.02;2.80;;;5.90;99.90;;;;;;4920486;28;20073;-89
2022/01/09 07:09:55;;;;;;;16.85;2.60;;;5.90;99.90;;;;;;4909267;28;20077;-93
2022/01/09 07:12:21;;;;;;;17.02;2.40;;;5.90;99.90;;;;;;4938698;28;20050;-92
2022/01/09 07:14:53;;;;;;;12.45;2.55;;;5.90;99.90;;;;;;4949065;28;20455;-91
2022/01/09 07:17:19;;;;;;;14.55;2.78;;;5.90;99.90;;;;;;4911833;28;20077;-91
2022/01/09 07:19:47;;;;;;;16.17;2.83;;;5.80;99.90;;;;;;4922747;28;20328;-92
2022/01/09 07:22:13;;;;;;;16.65;2.75;;;5.80;99.90;;;;;;4919546;28;20411;-92
2022/01/09 07:24:42;;;;;;;16.27;2.28;;;5.80;99.90;;;;;;4926370;28;20042;-92
2022/01/09 07:27:10;;;;;;;12.52;2.20;;;5.80;99.90;;;;;;4896904;28;20192;-92
2022/01/09 07:29:37;;;;;;;14.18;2.83;;;5.80;99.90;;;;;;4930585;28;20074;-93
2022/01/09 07:32:03;;;;;;;13.93;2.00;;;5.70;99.90;;;;;;4932490;28;20538;-89
2022/01/09 07:34:28;;;;;;;12.82;2.25;;;5.70;99.90;;;;;;4902767;28;20046;-92
2022/01/09 07:37:00;;;;;;;11.45;2.25;;;5.60;99.90;;;;;;4913072;28;20136;-94
2022/01/09 07:39:27;;;;;;;12.07;2.17;;;5.60;99.90;;;;;;4931856;28;20038;-90
2022/01/09 07:42:05;;;;;;;;;;;;;;;;;;;;;
2022/01/09 07:44:37;;;;;;;18.42;2.50;;;5.60;99.90;;;;;;4931181;28;20837;-93
2022/01/09 07:47:11;;;;;;;17.33;2.63;;;5.60;99.90;;;;;;4929449;28;20546;-92
2022/01/09 07:49:40;;;;;;;12.82;2.03;;;5.60;99.90;;;;;;4910044;28;20050;-92
2022/01/09 07:52:08;;;;;;;12.38;1.95;;;5.60;99.90;;;;;;4933225;28;20077;-89
2022/01/09 07:54:37;;;;;;;11.75;1.80;;;5.60;99.90;;;;;;4940756;28;20096;-93
2022/01/09 07:57:03;;;;;;;13.02;2.30;;;5.60;99.90;;;;;;4917006;28;20049;-89
2022/01/09 07:59:29;;;;;;;11.77;1.85;;;5.60;99.90;;;;;;4929919;28;20057;-91
2022/01/09 08:01:55;;;;;;;13.85;2.45;;;5.60;99.90;;;;;;4899131;28;20470;-94
2022/01/09 08:04:20;;;;;;;15.80;2.38;;;5.60;99.90;;;;;;4943823;28;20508;-94
2022/01/09 08:06:46;;;;;;;14.88;2.55;;;5.60;99.90;;;;;;4912881;28;20037;-94
2022/01/09 08:09:12;;;;;;;15.43;2.38;;;5.60;99.90;;;;;;4930686;28;20813;-92
2022/01/09 08:11:41;;;;;;;15.48;2.33;;;5.60;99.90;;;;;;4913612;28;20282;-90
2022/01/09 08:14:30;;;;;;;12.73;2.10;;;5.60;99.90;;;;;;4925889;28;20112;-90
2022/01/09 08:16:59;;;;;;;13.65;2.60;;;5.60;99.90;;;;;;4901468;28;20054;-94
2022/01/09 08:19:25;;;;;;;13.90;2.17;;;5.60;99.90;;;;;;4913699;28;20048;-92
2022/01/09 08:21:51;;;;;;;13.85;2.53;;;5.60;99.90;;;;;;4911315;28;20045;-93
2022/01/09 08:24:31;;;;;;;13.38;2.20;;;5.60;99.90;;;;;;4914500;28;20380;-93
2022/01/09 08:27:07;;;;;;;10.60;2.05;;;5.70;99.90;;;;;;4907320;28;20124;-93
2022/01/09 08:29:39;;;;;;;10.90;1.85;;;5.70;99.90;;;;;;4912619;28;20581;-94
2022/01/09 08:32:25;;;;;;;15.10;2.17;;;5.70;99.90;;;;;;4918179;28;20050;-94
2022/01/09 08:34:54;;;;;;;12.40;2.38;;;5.70;99.90;;;;;;4924130;28;20072;-93
2022/01/09 08:37:23;;;;;;;9.63;1.63;;;5.80;99.90;;;;;;4895719;28;20395;-89
2022/01/09 08:39:57;;;;;;;11.10;1.98;;;5.80;99.90;;;;;;4933163;28;20863;-91
2022/01/09 08:42:23;;;;;;;9.05;1.80;;;5.80;99.90;;;;;;4915226;28;20890;-94
2022/01/09 08:44:58;;;;;;;12.20;2.10;;;5.80;99.90;;;;;;4920240;28;20065;-94
2022/01/09 08:47:26;;;;;;;12.70;2.00;;;5.80;99.90;;;;;;4909685;28;20050;-92
2022/01/09 08:50:01;;;;;;;10.98;1.75;;;5.80;99.90;;;;;;4935189;28;20056;-96
2022/01/09 08:52:27;;;;;;;11.48;1.80;;;5.70;99.90;;;;;;4926639;28;20123;-93
2022/01/09 08:54:55;;;;;;;14.02;2.20;;;5.70;99.90;;;;;;4914240;28;20752;-93
2022/01/09 08:57:25;;;;;;;11.45;1.77;;;5.70;99.90;;;;;;4921405;28;20132;-90
2022/01/09 08:59:54;;;;;;;14.63;1.90;;;5.80;99.90;;;;;;4919590;28;20796;-94
2022/01/09 09:02:20;;;;;;;13.95;2.30;;;5.80;99.90;;;;;;4934901;28;20077;-92
2022/01/09 09:04:55;;;;;;;11.27;1.83;;;5.80;99.90;;;;;;4914721;28;20336;-95
2022/01/09 09:07:44;;;;;;;9.82;1.55;;;5.90;99.90;;;;;;4924639;28;20046;-93
2022/01/09 09:10:12;;;;;;;10.70;1.77;;;5.90;99.90;;;;;;4923141;28;20052;-94
2022/01/09 09:12:39;;;;;;;13.77;1.80;;;5.90;99.90;;;;;;4919595;28;20261;-95
2022/01/09 09:15:23;;;;;;;12.43;2.05;;;5.90;99.90;;;;;;4923923;28;20048;-94
2022/01/09 09:17:55;;;;;;;14.30;2.42;;;5.90;99.90;;;;;;4937774;28;20057;-95
2022/01/09 09:20:24;;;;;;;9.38;1.92;;;5.90;99.90;;;;;;4925703;28;20073;-94
2022/01/09 09:23:28;;;;;;;12.52;1.95;;;5.90;99.90;;;;;;4929498;28;20523;-95
2022/01/09 09:25:54;;;;;;;12.43;2.35;;;6.00;99.90;;;;;;4904163;28;20865;-92
2022/01/09 09:28:37;;;;;;;;;;;;;;;;;;;;;
2022/01/09 09:34:04;;;;;;;15.50;2.40;;;5.90;99.90;;;;;;4948587;28;20469;-93
2022/01/09 09:36:30;;;;;;;15.65;2.50;;;6.00;99.90;;;;;;4905859;28;20903;-94
2022/01/09 09:39:04;;;;;;;14.25;2.83;;;6.00;99.90;;;;;;4905123;28;20065;-95
2022/01/09 09:41:31;;;;;;;17.52;2.60;;;5.90;99.90;;;;;;4942068;28;20053;-93
2022/01/09 09:44:04;;;;;;;13.68;2.50;;;6.00;99.90;;;;;;4925120;28;20547;-94
2022/01/09 09:46:39;;;;;;;12.70;2.30;;;6.00;99.90;;;;;;4935970;28;20100;-92
2022/01/09 09:49:08;;;;;;;16.92;2.72;;;6.00;99.90;;;;;;4953028;28;20397;-94
2022/01/09 09:51:47;;;;;;;20.65;3.53;;;6.00;99.90;;;;;;4939164;28;20081;-95
2022/01/09 09:54:19;;;;;;;14.80;3.20;;;6.00;99.90;;;;;;4905865;28;20860;-94
2022/01/09 09:56:44;;;;;;;18.63;3.40;;;6.10;99.90;;;;;;4919331;28;20054;-94
2022/01/09 09:59:38;;;;;;;15.75;2.92;;;6.10;99.90;;;;;;4920265;28;20905;-93
2022/01/09 10:02:21;;;;;;;12.70;2.60;;;6.10;99.90;;;;;;4935962;28;20061;-96
2022/01/09 10:05:04;;;;;;;18.33;3.10;;;6.10;99.90;;;;;;4909585;28;20088;-92
2022/01/09 10:07:30;;;;;;;15.80;2.75;;;6.10;99.90;;;;;;4920845;28;20061;-92
2022/01/09 10:10:04;;;;;;;19.15;3.17;;;6.10;99.90;;;;;;4888758;28;20451;-92
2022/01/09 10:12:32;;;;;;;16.67;3.15;;;6.10;99.90;;;;;;4910947;28;20074;-91
2022/01/09 10:15:09;;;;;;;17.55;3.13;;;6.20;99.90;;;;;;4907942;28;20046;-93
2022/01/09 10:17:55;;;;;;;14.75;2.97;;;6.10;99.90;;;;;;4910846;28;20055;-94
2022/01/09 10:20:24;;;;;;;13.00;3.13;;;6.20;99.90;;;;;;4913922;28;20046;-92
2022/01/09 10:22:55;;;;;;;17.45;3.40;;;6.20;99.90;;;;;;4919842;28;20042;-92
2022/01/09 10:25:36;;;;;;;14.75;2.80;;;6.20;99.90;;;;;;4920353;28;20488;-92
2022/01/09 10:28:14;;;;;;;17.58;3.03;;;6.20;99.90;;;;;;4921646;28;20049;-91
2022/01/09 10:30:42;;;;;;;18.95;3.00;;;6.20;99.90;;;;;;4932193;28;20049;-93
2022/01/09 10:33:12;;;;;;;14.90;2.40;;;6.30;99.90;;;;;;4930520;28;20755;-93
2022/01/09 10:35:40;;;;;;;17.42;3.33;;;6.30;99.90;;;;;;4915445;28;20495;-92
2022/01/09 10:38:22;;;;;;;18.73;3.05;;;6.30;99.90;;;;;;4934381;28;20455;-94
2022/01/09 10:41:02;;;;;;;16.17;3.00;;;6.30;99.90;;;;;;4938332;28;20062;-94
2022/01/09 10:43:43;;;;;;;19.38;3.20;;;6.30;99.90;;;;;;4932963;28;20074;-93
2022/01/09 10:46:09;;;;;;;14.80;2.72;;;6.40;99.90;;;;;;4915764;28;20050;-92
2022/01/09 10:48:41;;;;;;;18.88;3.30;;;6.50;99.90;;;;;;4918213;28;20273;-92
2022/01/09 10:51:10;;;;;;;15.70;2.95;;;6.60;99.90;;;;;;4920519;28;20092;-94
2022/01/09 10:53:44;;;;;;;18.40;2.88;;;6.60;99.90;;;;;;4939401;28;20050;-94
2022/01/09 10:56:15;;;;;;;;;;;6.60;99.90;;;;;;4933780;28;20053;-89
2022/01/09 10:58:46;;;;;;;13.65;2.92;;;6.60;99.90;;;;;;4916743;28;20644;-94
2022/01/09 11:01:23;;;;;;;18.80;3.00;;;6.70;99.90;;;;;;4926575;28;20191;-94
2022/01/09 11:03:58;;;;;;;17.42;3.03;;;6.80;99.90;;;;;;4915038;28;20104;-95
2022/01/09 11:06:35;;;;;;;15.43;2.97;;;6.90;99.90;;;;;;4919915;28;20614;-91
2022/01/09 11:09:04;;;;;;;16.15;2.97;;;6.90;99.90;;;;;;4920660;28;20081;-91
2022/01/09 11:11:40;;;;;;;17.42;4.07;;;6.90;99.90;;;;;;4912540;28;20054;-94
2022/01/09 11:14:12;;;;;;;14.88;3.40;;;6.90;99.90;;;;;;4902391;28;21096;-92
2022/01/09 11:16:42;;;;;;;14.40;3.30;;;7.00;99.90;;;;;;4917271;28;20161;-93
2022/01/09 11:19:10;;;;;;;15.15;3.78;;;7.00;99.90;;;;;;4944122;28;20128;-93
2022/01/09 11:21:59;;;;;;;15.27;3.10;;;7.00;99.90;;;;;;4920257;28;20046;-93
2022/01/09 11:24:50;;;;;;;14.88;3.00;;;7.00;99.90;;;;;;4940848;28;20073;-94
2022/01/09 11:27:26;;;;;;;11.53;2.83;;;7.10;99.90;;;;;;4905893;28;20141;-88
2022/01/09 11:29:52;;;;;;;19.60;3.30;;;7.10;99.90;;;;;;4920798;28;20468;-91
2022/01/09 11:32:53;;;;;;;15.40;3.20;;;7.10;99.90;;;;;;4921669;28;20360;-89
2022/01/09 11:35:47;;;;;;;17.23;2.92;;;7.10;99.90;;;;;;4891937;28;20605;-93
2022/01/09 11:38:45;;;;;;;18.02;3.10;;;7.10;99.90;;;;;;4940924;28;20493;-90
2022/01/09 11:41:19;;;;;;;14.40;2.88;;;7.20;99.90;;;;;;4912867;28;20104;-92
2022/01/09 11:43:59;;;;;;;17.42;3.05;;;7.20;99.90;;;;;;4929071;28;20738;-93
2022/01/09 11:46:29;;;;;;;14.88;2.75;;;7.20;99.90;;;;;;4933115;28;20050;-92
2022/01/09 11:48:59;;;;;;;11.70;2.88;;;7.20;99.90;;;;;;4940006;28;20400;-91
2022/01/09 11:54:17;;;;;;;15.13;2.67;;;7.20;99.90;;;;;;4933663;28;20041;-92
2022/01/09 11:57:03;;;;;;;17.13;3.33;;;7.10;99.90;;;;;;4931527;28;20060;-91
2022/01/09 11:59:51;;;;;;;21.42;3.75;;;7.00;99.90;;;;;;4924342;28;20088;-91
2022/01/09 12:02:17;;;;;;;16.35;3.10;;;7.00;99.90;;;;;;4917510;28;20041;-93
2022/01/09 12:04:45;;;;;;;15.23;2.90;;;7.00;99.90;;;;;;4917616;28;20345;-94
2022/01/09 12:07:15;;;;;;;14.38;2.88;;;7.00;99.90;;;;;;4930397;28;20406;-94
2022/01/09 12:09:47;;;;;;;14.80;2.92;;;6.90;99.90;;;;;;4915514;28;20160;-91
2022/01/09 12:12:16;;;;;;;15.55;2.92;;;7.00;99.90;;;;;;4926829;28;20376;-92
2022/01/09 12:14:44;;;;;;;20.33;3.20;;;7.10;99.90;;;;;;4902102;28;20549;-89
2022/01/09 12:17:26;;;;;;;10.18;2.45;;;7.20;99.90;;;;;;4912847;28;20046;-92
2022/01/09 12:20:08;;;;;;;17.42;2.53;;;7.20;99.90;;;;;;4943115;28;20430;-93
2022/01/09 12:22:49;;;;;;;13.88;2.72;;;7.20;99.90;;;;;;4931925;28;20607;-92
2022/01/09 12:25:28;;;;;;;17.90;3.20;;;7.30;99.90;;;;;;4913887;28;20049;-94
2022/01/09 12:28:11;;;;;;;13.63;2.97;;;7.30;99.90;;;;;;4931515;28;20184;-92
2022/01/09 12:33:09;;;;;;;14.15;2.80;;;7.50;99.90;;;;;;4939389;28;20084;-92
2022/01/09 12:35:38;;;;;;;17.10;3.00;;;7.40;99.90;;;;;;4918047;28;20049;-95
2022/01/09 12:38:05;;;;;;;17.23;3.13;;;7.40;99.90;;;;;;4923779;28;20606;-95
2022/01/09 12:40:41;;;;;;;15.45;3.15;;;7.60;99.90;;;;;;4910238;28;20046;-95
2022/01/09 12:43:25;;;;;;;13.27;2.78;;;7.70;99.90;;;;;;4875854;28;20844;-95
2022/01/09 12:45:54;;;;;;;13.68;2.70;;;7.60;99.90;;;;;;4910604;28;20056;-93
2022/01/09 12:48:50;;;;;;;18.33;2.83;;;7.60;99.90;;;;;;4889489;28;20135;-92
2022/01/09 12:51:16;;;;;;;13.90;3.08;;;7.70;99.90;;;;;;4933315;28;20511;-92
2022/01/09 12:53:51;;;;;;;16.15;3.38;;;7.70;99.90;;;;;;4890633;28;20650;-91
2022/01/09 12:56:18;;;;;;;19.67;2.92;;;7.80;99.90;;;;;;4925165;28;20046;-90
2022/01/09 12:58:48;;;;;;;13.60;3.15;;;7.90;99.90;;;;;;4898742;28;20118;-90
2022/01/09 13:01:27;;;;;;;20.13;2.95;;;8.00;99.90;;;;;;4916074;28;20519;-90
2022/01/09 13:03:58;;;;;;;16.35;3.03;;;8.00;99.90;;;;;;4910121;28;20041;-94
2022/01/09 13:06:32;;;;;;;19.65;3.15;;;7.90;99.90;;;;;;4940253;28;20885;-92
2022/01/09 13:09:04;;;;;;;15.63;2.80;;;7.60;99.90;;;;;;4900371;28;20067;-93
2022/01/09 13:11:31;;;;;;;13.95;2.40;;;7.40;99.90;;;;;;4922935;28;20922;-88
2022/01/09 13:13:59;;;;;;;13.30;2.65;;;7.20;99.90;;;;;;4898217;28;20411;-90
2022/01/09 13:16:27;;;;;;;15.57;3.10;;;7.10;99.90;;;;;;4931338;28;20048;-91
2022/01/09 13:18:59;;;;;;;12.52;2.17;;;7.00;99.90;;;;;;4913427;28;20419;-93
2022/01/09 13:21:34;;;;;;;12.30;2.22;;;6.90;99.90;;;;;;4914390;28;20451;-95
2022/01/09 13:24:03;;;;;;;13.45;2.63;;;6.90;99.90;;;;;;4912149;28;20674;-92
2022/01/09 13:26:41;;;;;;;14.23;2.55;;;6.80;99.90;;;;;;4907373;28;20073;-89
2022/01/09 13:29:16;;;;;;;17.83;2.28;;;6.80;99.90;;;;;;4924697;28;20526;-90
2022/01/09 13:31:51;;;;;;;11.82;1.92;;;6.70;99.90;;;;;;4903960;28;20140;-91
2022/01/09 13:34:20;;;;;;;15.15;2.42;;;6.70;99.90;;;;;;4903541;28;20054;-89
2022/01/09 13:36:51;;;;;;;15.40;2.42;;;6.80;99.90;;;;;;4925069;28;20053;-93
2022/01/09 13:39:30;;;;;;;15.20;2.50;;;6.70;99.90;;;;;;4912854;28;20053;-94
2022/01/09 13:41:56;;;;;;;16.27;2.55;;;6.70;99.90;;;;;;4917914;28;20530;-92
2022/01/09 13:44:27;;;;;;;9.73;2.15;;;6.60;99.90;;;;;;4922042;28;20054;-93
2022/01/09 13:47:17;;;;;;;12.48;2.30;;;6.60;99.90;;;;;;4914812;28;20747;-94
2022/01/09 13:49:51;;;;;;;13.90;2.40;;;6.60;99.90;;;;;;4916695;28;20255;-92
2022/01/09 13:52:20;;;;;;;13.70;2.80;;;6.50;99.90;;;;;;4906333;28;20626;-88
2022/01/09 13:54:57;;;;;;;10.63;2.10;;;6.40;99.90;;;;;;4901570;28;20538;-86
2022/01/09 13:57:27;;;;;;;16.35;2.22;;;6.40;99.90;;;;;;4906539;28;20136;-92
2022/01/09 13:59:59;;;;;;;10.13;2.05;;;6.30;99.90;;;;;;4925585;28;20041;-93
2022/01/09 14:02:37;;;;;;;9.52;1.73;;;6.10;99.90;;;;;;4936305;28;20038;-94
2022/01/09 14:05:50;;;;;;;14.85;2.45;;;6.00;99.90;;;;;;4915198;28;20257;-93
2022/01/09 14:08:19;;;;;;;12.77;2.20;;;6.00;99.90;;;;;;4935582;28;20532;-94
2022/01/09 14:10:53;;;;;;;14.60;1.90;;;6.00;99.90;;;;;;4926085;28;20045;-95
2022/01/09 14:13:25;;;;;;;10.32;1.80;;;6.00;99.90;;;;;;4918115;28;20382;-92
2022/01/09 14:15:53;;;;;;;9.40;1.75;;;5.90;99.90;;;;;;4920715;28;20045;-88
2022/01/09 14:18:30;;;;;;;11.27;1.90;;;5.90;99.90;;;;;;4947657;28;20558;-90
2022/01/09 14:21:14;;;;;;;10.70;1.95;;;5.80;99.90;;;;;;4922229;28;20453;-90
2022/01/09 14:23:46;;;;;;;12.48;1.95;;;5.80;99.90;;;;;;4922984;28;20048;-92
2022/01/09 14:26:15;;;;;;;11.25;2.00;;;5.80;99.90;;;;;;4920067;28;20054;-90
2022/01/09 14:28:49;;;;;;;9.38;1.98;;;5.70;99.90;;;;;;4927922;28;20049;-95
2022/01/09 14:31:18;;;;;;;11.00;1.85;;;5.60;99.90;;;;;;4946952;28;20772;-93
2022/01/09 14:33:46;;;;;;;12.20;1.90;;;5.60;99.90;;;;;;4908124;28;20157;-92
2022/01/09 14:36:15;;;;;;;8.63;1.83;;;5.50;99.90;;;;;;4928468;28;20050;-92
2022/01/09 14:38:51;;;;;;;12.02;2.10;;;5.50;99.90;;;;;;4926965;28;20080;-94
2022/01/09 14:41:26;;;;;;;9.52;2.03;;;5.40;99.90;;;;;;4957235;28;20411;-93
2022/01/09 14:43:52;;;;;;;11.52;2.03;;;5.40;99.90;;;;;;4953484;28;20045;-91
2022/01/09 14:46:28;;;;;;;11.80;2.30;;;5.30;99.90;;;;;;4923340;28;20065;-96
2022/01/09 14:48:54;;;;;;;11.40;2.20;;;5.30;99.90;;;;;;4925127;28;20676;-96
2022/01/09 14:51:23;;;;;;;13.65;2.00;;;5.30;99.90;;;;;;4955051;28;20379;-95
2022/01/09 14:53:52;;;;;;;10.73;1.90;;;5.20;99.90;;;;;;4923233;28;20057;-94
2022/01/09 14:56:21;;;;;;;8.60;2.53;;;5.20;99.90;;;;;;4918182;28;20161;-93
2022/01/09 14:58:49;;;;;;;12.43;2.10;;;5.20;99.90;;;;;;4922924;28;20061;-95
2022/01/09 15:01:19;;;;;;;12.07;2.03;;;5.20;99.90;;;;;;4910843;28;20069;-92
2022/01/09 15:03:45;;;;;;;12.63;2.17;;;5.10;99.90;;;;;;4936964;28;20309;-92
2022/01/09 15:06:16;;;;;;;15.35;2.20;;;5.10;99.90;;;;;;4912182;28;20430;-90